Time;durP1;ratioP1;P1;durP2;ratioP2;P2;SDS_P1;SDS_P2;PMS_P1;PMS_P2;Temp;Humidity;BMP_temperature;BMP_pressure;BME280_temperature;BME280_humidity;BME280_pressure;Samples;Min_cycle;Max_cycle;Signal;HPM_P1;HPM_P2
2022/01/24 00:00:03;;;;;;;;;;;;;;;26.61;26.45;98966.44;171849;28;1398;-55
2022/01/24 00:00:08;;;;;;;;;;;;;;;26.62;26.60;98962.84;172398;28;953;-55
2022/01/24 00:00:14;;;;;;;;;;;;;;;26.62;26.47;98971.66;172356;28;889;-55
2022/01/24 00:00:21;;;;;;;;;;;;;;;26.62;26.53;98962.84;171802;28;837;-55
2022/01/24 00:00:26;;;;;;;;;;;;;;;26.61;26.36;98969.94;171272;28;813;-54
2022/01/24 00:00:31;;;;;;;;;;;;;;;26.63;26.70;98968.06;171857;28;1000;-55
2022/01/24 00:00:37;;;;;;;;;;;;;;;26.64;26.36;98966.28;171849;28;1103;-55
2022/01/24 00:00:42;;;;;;;;;;;;;;;26.63;26.70;98965.44;171382;28;1543;-54
2022/01/24 00:00:47;;;;;;;;;;;;;;;26.63;26.47;98968.06;171725;28;1094;-55
2022/01/24 00:00:52;;;;;;;;;;;;;;;26.65;26.40;98960.88;171884;28;1043;-55
2022/01/24 00:00:59;;;;;;;;;;;;;;;26.67;26.63;98966.06;171756;28;960;-55
2022/01/24 00:01:05;;;;;;;;;;;;;;;26.66;26.38;98970.53;171321;28;913;-55
2022/01/24 00:01:11;;;;;;;;;;;;;;;26.66;26.61;98964.38;171833;28;1213;-56
2022/01/24 00:01:16;;;;;;;;;;;;;;;26.67;26.57;98966.91;171587;28;838;-55
2022/01/24 00:01:21;;;;;;;;;;;;;;;26.66;26.42;98967.88;171704;28;1189;-55
2022/01/24 00:01:27;;;;;;;;;;;;;;;26.66;26.41;98964.38;171773;28;846;-55
2022/01/24 00:01:33;;;;;;;;;;;;;;;26.66;26.45;98970.53;171733;28;1039;-55
2022/01/24 00:01:38;;;;;;;;;;;;;;;26.66;26.50;98967.88;172153;28;4477;-56
2022/01/24 00:01:44;;;;;;;;;;;;;;;26.65;26.71;98965.31;172356;28;1184;-56
2022/01/24 00:01:50;;;;;;;;;;;;;;;26.66;26.77;98969.66;172633;28;841;-55
2022/01/24 00:01:56;;;;;;;;;;;;;;;26.66;26.46;98969.66;173129;28;1006;-55
2022/01/24 00:02:01;;;;;;;;;;;;;;;26.66;26.34;98967.88;173009;28;1005;-56
2022/01/24 00:02:06;;;;;;;;;;;;;;;26.57;26.48;98965.78;173013;28;1041;-55
2022/01/24 00:02:11;;;;;;;;;;;;;;;26.62;26.75;98970.78;173220;28;790;-55
2022/01/24 00:02:17;;;;;;;;;;;;;;;26.62;26.68;98968.13;173037;28;976;-55
2022/01/24 00:02:22;;;;;;;;;;;;;;;26.60;26.40;98970.03;173818;28;1145;-55
2022/01/24 00:02:29;;;;;;;;;;;;;;;26.61;26.45;98962.00;173760;28;1141;-55
2022/01/24 00:02:34;;;;;;;;;;;;;;;26.63;26.48;98969.88;173835;28;1235;-55
2022/01/24 00:02:41;;;;;;;;;;;;;;;26.62;26.55;98966.38;173959;28;880;-55
2022/01/24 00:02:47;;;;;;;;;;;;;;;26.63;26.54;98965.44;172775;28;809;-54
2022/01/24 00:02:52;;;;;;;;;;;;;;;26.64;26.65;98967.13;173146;28;821;-55
2022/01/24 00:02:57;;;;;;;;;;;;;;;26.54;26.81;98962.47;173124;28;1153;-54
2022/01/24 00:03:02;;;;;;;;;;;;;;;26.45;26.71;98966.50;172514;28;1062;-55
2022/01/24 00:03:08;;;;;;;;;;;;;;;26.44;27.01;98968.31;172507;28;1102;-55
2022/01/24 00:03:13;;;;;;;;;;;;;;;26.41;26.59;98965.88;172584;28;1045;-56
2022/01/24 00:03:18;;;;;;;;;;;;;;;26.45;26.94;98966.50;173029;28;1068;-55
2022/01/24 00:03:23;;;;;;;;;;;;;;;26.47;26.80;98967.28;173236;28;920;-55
2022/01/24 00:03:28;;;;;;;;;;;;;;;26.50;26.96;98969.75;173105;28;971;-56
2022/01/24 00:03:34;;;;;;;;;;;;;;;26.46;26.60;98968.22;173110;28;812;-55
2022/01/24 00:03:39;;;;;;;;;;;;;;;26.50;26.64;98964.44;172264;28;1577;-54
2022/01/24 00:03:45;;;;;;;;;;;;;;;26.54;26.90;98970.41;172260;28;947;-55
2022/01/24 00:03:56;;;;;;;;;;;;;;;26.57;26.88;98972.88;172502;28;864;-55
2022/01/24 00:04:02;;;;;;;;;;;;;;;26.59;26.69;98963.91;172434;28;1025;-56
2022/01/24 00:04:08;;;;;;;;;;;;;;;26.60;26.68;98970.88;172573;28;1094;-55
2022/01/24 00:04:14;;;;;;;;;;;;;;;26.58;26.87;98967.50;172379;28;813;-55
2022/01/24 00:04:20;;;;;;;;;;;;;;;26.52;26.72;98959.06;172434;28;1018;-55
2022/01/24 00:04:26;;;;;;;;;;;;;;;26.42;27.01;98967.56;172345;28;1090;-55
2022/01/24 00:04:31;;;;;;;;;;;;;;;26.46;26.67;98970.00;172373;28;947;-54
2022/01/24 00:04:38;;;;;;;;;;;;;;;26.50;26.67;98968.91;172581;28;805;-56
2022/01/24 00:04:43;;;;;;;;;;;;;;;26.52;26.91;98967.84;172463;28;1172;-55
2022/01/24 00:04:49;;;;;;;;;;;;;;;26.56;26.76;98968.53;172570;28;880;-56
2022/01/24 00:04:55;;;;;;;;;;;;;;;26.57;26.83;98968.44;172455;28;1223;-55
2022/01/24 00:05:00;;;;;;;;;;;;;;;26.59;26.66;98969.19;172184;28;974;-55
2022/01/24 00:05:05;;;;;;;;;;;;;;;26.60;26.81;98970.03;172461;28;1358;-55
2022/01/24 00:05:11;;;;;;;;;;;;;;;26.60;26.78;98970.88;172575;28;738;-55
2022/01/24 00:05:19;;;;;;;;;;;;;;;26.58;26.47;98967.50;172262;28;1144;-55
2022/01/24 00:05:24;;;;;;;;;;;;;;;26.59;26.77;98963.91;172607;28;890;-55
2022/01/24 00:05:30;;;;;;;;;;;;;;;26.56;26.80;98963.25;172455;28;844;-56
2022/01/24 00:05:35;;;;;;;;;;;;;;;26.52;26.65;98962.56;173276;28;865;-55
2022/01/24 00:05:41;;;;;;;;;;;;;;;26.56;26.60;98968.53;172675;28;4203;-55
2022/01/24 00:05:46;;;;;;;;;;;;;;;26.57;26.75;98957.00;173173;28;833;-55
2022/01/24 00:05:51;;;;;;;;;;;;;;;26.59;26.76;98969.19;173276;28;1223;-55
2022/01/24 00:05:57;;;;;;;;;;;;;;;26.59;26.58;98960.41;173177;28;833;-55
2022/01/24 00:06:02;;;;;;;;;;;;;;;26.58;26.76;98967.50;172974;28;885;-55
2022/01/24 00:06:11;;;;;;;;;;;;;;;26.47;26.93;98966.44;173111;28;974;-55
2022/01/24 00:06:16;;;;;;;;;;;;;;;26.35;27.00;98958.25;172601;28;1065;-55
2022/01/24 00:06:22;;;;;;;;;;;;;;;26.42;26.81;98961.41;173178;28;797;-55
2022/01/24 00:06:27;;;;;;;;;;;;;;;26.47;27.05;98964.66;173042;28;926;-54
2022/01/24 00:06:33;;;;;;;;;;;;;;;26.50;27.03;98966.25;173835;28;804;-55
2022/01/24 00:06:40;;;;;;;;;;;;;;;26.35;26.90;98963.53;173857;28;1105;-54
2022/01/24 00:06:45;;;;;;;;;;;;;;;26.27;27.13;98963.16;173852;28;849;-54
2022/01/24 00:06:50;;;;;;;;;;;;;;;26.32;27.11;98963.75;173908;28;1184;-55
2022/01/24 00:06:55;;;;;;;;;;;;;;;26.39;27.01;98965.13;173840;28;813;-55
2022/01/24 00:07:01;;;;;;;;;;;;;;;26.42;26.98;98954.34;173476;28;871;-56
2022/01/24 00:07:06;;;;;;;;;;;;;;;26.48;26.92;98960.22;173917;28;876;-55
2022/01/24 00:07:11;;;;;;;;;;;;;;;26.48;26.99;98960.22;173936;28;853;-55
2022/01/24 00:07:20;;;;;;;;;;;;;;;26.48;26.82;98966.34;173715;28;1184;-55
2022/01/24 00:07:25;;;;;;;;;;;;;;;26.52;26.62;98964.34;173836;28;964;-55
2022/01/24 00:07:32;;;;;;;;;;;;;;;26.53;26.82;98963.41;173181;28;829;-56
2022/01/24 00:07:37;;;;;;;;;;;;;;;26.53;26.61;98964.25;171868;28;1190;-55
2022/01/24 00:07:42;;;;;;;;;;;;;;;26.54;26.67;98960.66;171802;28;829;-55
2022/01/24 00:07:48;;;;;;;;;;;;;;;26.55;26.74;98970.34;171649;28;1003;-55
2022/01/24 00:07:53;;;;;;;;;;;;;;;26.56;26.83;98963.25;171904;28;853;-54
2022/01/24 00:07:58;;;;;;;;;;;;;;;26.56;26.58;98965.88;172473;28;830;-55
2022/01/24 00:08:03;;;;;;;;;;;;;;;26.54;26.52;98967.75;173013;28;1144;-55
2022/01/24 00:08:08;;;;;;;;;;;;;;;26.41;26.69;98965.88;172543;28;802;-55
2022/01/24 00:08:14;;;;;;;;;;;;;;;26.39;26.94;98962.47;172190;28;1047;-56
2022/01/24 00:08:20;;;;;;;;;;;;;;;26.37;26.77;98964.28;172985;28;1375;-55
2022/01/24 00:08:25;;;;;;;;;;;;;;;26.38;27.13;98960.72;173057;28;1220;-55
2022/01/24 00:08:31;;;;;;;;;;;;;;;26.42;27.05;98956.97;173213;28;852;-55
2022/01/24 00:08:37;;;;;;;;;;;;;;;26.48;26.98;98965.50;173083;28;995;-56
2022/01/24 00:08:42;;;;;;;;;;;;;;;26.47;26.67;98961.16;173240;28;915;-55
2022/01/24 00:08:47;;;;;;;;;;;;;;;26.34;26.90;98963.63;173144;28;1165;-54
2022/01/24 00:08:52;;;;;;;;;;;;;;;26.28;27.14;98959.56;173351;28;825;-55
2022/01/24 00:08:58;;;;;;;;;;;;;;;26.22;27.08;98959.06;172496;28;869;-55
2022/01/24 00:09:04;;;;;;;;;;;;;;;26.35;26.93;98962.69;172179;28;1065;-55
2022/01/24 00:09:11;;;;;;;;;;;;;;;26.34;27.17;98963.63;172543;28;897;-55
2022/01/24 00:09:16;;;;;;;;;;;;;;;26.41;27.14;98960.56;171843;28;1101;-55
2022/01/24 00:09:21;;;;;;;;;;;;;;;26.35;27.15;98965.34;172414;28;873;-55
2022/01/24 00:09:27;;;;;;;;;;;;;;;26.26;27.21;98963.25;171442;28;996;-55
2022/01/24 00:09:32;;;;;;;;;;;;;;;26.23;26.88;98968.69;171773;28;865;-55
2022/01/24 00:09:38;;;;;;;;;;;;;;;26.32;27.23;98965.53;171294;28;4235;-55
2022/01/24 00:09:43;;;;;;;;;;;;;;;26.32;26.98;98966.38;171778;28;822;-56
2022/01/24 00:09:51;;;;;;;;;;;;;;;26.35;27.13;98971.47;171881;28;975;-55
2022/01/24 00:10:00;;;;;;;;;;;;;;;26.41;27.12;98967.66;171883;28;876;-55
2022/01/24 00:10:09;;;;;;;;;;;;;;;26.47;26.63;98966.44;171871;28;937;-56
2022/01/24 00:10:18;;;;;;;;;;;;;;;26.49;26.95;98970.69;172137;28;858;-55
2022/01/24 00:10:26;;;;;;;;;;;;;;;26.49;26.83;98961.91;173127;28;1156;-55
2022/01/24 00:10:34;;;;;;;;;;;;;;;26.53;26.68;98968.69;172593;28;572;-55
2022/01/24 00:10:40;;;;;;;;;;;;;;;26.54;26.62;98959.81;172738;28;861;-55
2022/01/24 00:10:47;;;;;;;;;;;;;;;26.56;26.70;98966.75;173067;28;1018;-55
2022/01/24 00:10:54;;;;;;;;;;;;;;;26.44;26.86;98973.59;172607;28;900;-55
2022/01/24 00:11:05;;;;;;;;;;;;;;;26.43;26.92;98963.97;173092;28;1058;-56
2022/01/24 00:11:15;;;;;;;;;;;;;;;26.51;26.95;98963.50;173208;28;1042;-56
2022/01/24 00:11:25;;;;;;;;;;;;;;;26.55;26.77;98969.47;173132;28;1172;-55
2022/01/24 00:12:14;;;;;;;;;;;;;;;26.54;26.78;98965.94;171212;28;1144;-55
2022/01/24 00:12:19;;;;;;;;;;;;;;;26.50;26.98;98969.75;173213;28;872;-55
2022/01/24 00:12:27;;;;;;;;;;;;;;;26.52;26.78;98965.19;170717;28;1058;-55
2022/01/24 00:13:34;;;;;;;;;;;;;;;26.50;26.59;98975.03;171058;28;1031;-55
2022/01/24 00:14:21;;;;;;;;;;;;;;;26.49;26.77;98968.03;171917;28;861;-56
2022/01/24 00:14:54;;;;;;;;;;;;;;;26.46;26.91;98972.66;172125;28;986;-55
2022/01/24 00:15:15;;;;;;;;;;;;;;;26.35;26.83;98965.34;172272;28;1321;-55
2022/01/24 00:16:00;;;;;;;;;;;;;;;26.39;26.69;98966.91;172432;28;1145;-56
2022/01/24 00:16:31;;;;;;;;;;;;;;;26.40;26.86;98971.25;172920;28;1019;-55
2022/01/24 00:16:59;;;;;;;;;;;;;;;26.42;26.97;98970.19;171914;28;1274;-55
2022/01/24 00:17:10;;;;;;;;;;;;;;;26.41;27.03;98963.22;171754;28;731;-55
2022/01/24 00:17:49;;;;;;;;;;;;;;;26.46;26.92;98970.84;172220;28;5372;-55
2022/01/24 00:18:13;;;;;;;;;;;;;;;26.36;26.79;98969.69;171839;28;892;-55
2022/01/24 00:26:43;;;;;;;;;;;;;;;26.35;27.08;98975.91;173301;28;698;-54
2022/01/24 00:26:47;;;;;;;;;;;;;;;26.21;26.88;98976.72;173884;28;1000;-55
2022/01/24 00:26:53;;;;;;;;;;;;;;;26.25;27.17;98980.91;173532;28;1161;-54
2022/01/24 00:26:59;;;;;;;;;;;;;;;26.28;26.89;98979.88;173635;28;817;-55
2022/01/24 00:27:04;;;;;;;;;;;;;;;26.28;27.06;98975.44;173575;28;1290;-54
2022/01/24 00:27:09;;;;;;;;;;;;;;;26.29;26.95;98976.28;173871;28;817;-55
2022/01/24 00:27:14;;;;;;;;;;;;;;;26.31;27.08;98975.25;173783;28;1038;-55
2022/01/24 00:27:19;;;;;;;;;;;;;;;26.30;26.80;98981.47;173844;28;849;-55
2022/01/24 00:27:25;;;;;;;;;;;;;;;26.32;26.74;98976.13;173696;28;998;-56
2022/01/24 00:27:30;;;;;;;;;;;;;;;26.32;26.74;98976.13;173170;28;825;-55
2022/01/24 00:27:35;;;;;;;;;;;;;;;26.32;27.03;98982.25;173179;28;905;-55
2022/01/24 00:27:40;;;;;;;;;;;;;;;26.34;26.71;98977.72;172971;28;1225;-56
2022/01/24 00:27:46;;;;;;;;;;;;;;;26.36;26.90;98975.81;173265;28;1048;-55
2022/01/24 00:27:51;;;;;;;;;;;;;;;26.35;27.03;98973.28;172697;28;1106;-56
2022/01/24 00:27:56;;;;;;;;;;;;;;;26.32;26.97;98971.66;172279;28;1000;-55
2022/01/24 00:28:01;;;;;;;;;;;;;;;26.36;26.97;98969.69;171546;28;1152;-55
2022/01/24 00:28:06;;;;;;;;;;;;;;;26.34;26.84;98975.06;171796;28;778;-55
2022/01/24 00:28:12;;;;;;;;;;;;;;;26.27;26.95;98978.16;171739;28;1098;-56
2022/01/24 00:28:19;;;;;;;;;;;;;;;26.20;26.95;98977.66;171128;28;890;-56
2022/01/24 00:28:24;;;;;;;;;;;;;;;26.30;27.15;98973.53;171038;28;949;-56
2022/01/24 00:28:29;;;;;;;;;;;;;;;26.32;26.96;98979.59;170448;28;1047;-55
2022/01/24 00:28:35;;;;;;;;;;;;;;;26.35;27.00;98981.22;170086;29;1724;-56
2022/01/24 00:28:40;;;;;;;;;;;;;;;26.36;26.95;98978.47;170337;29;1329;-54
2022/01/24 00:28:45;;;;;;;;;;;;;;;26.39;26.72;98970.41;170393;29;952;-55
2022/01/24 00:28:50;;;;;;;;;;;;;;;26.41;26.63;98972.94;170430;29;1138;-55
2022/01/24 00:28:55;;;;;;;;;;;;;;;26.42;26.65;98975.50;170324;29;997;-56
2022/01/24 00:29:01;;;;;;;;;;;;;;;26.44;26.90;98970.94;170276;28;1222;-56
2022/01/24 00:29:06;;;;;;;;;;;;;;;26.43;26.55;98974.53;171140;28;838;-54
2022/01/24 00:29:11;;;;;;;;;;;;;;;26.46;26.68;98972.66;170322;29;1147;-55
2022/01/24 00:29:18;;;;;;;;;;;;;;;26.42;26.71;98972.84;170510;29;798;-56
2022/01/24 00:29:24;;;;;;;;;;;;;;;26.43;26.63;98973.69;170371;29;1066;-55
2022/01/24 00:29:29;;;;;;;;;;;;;;;26.45;26.74;98974.44;171115;28;1000;-54
2022/01/24 00:29:34;;;;;;;;;;;;;;;26.46;26.80;98977.94;171097;28;1162;-54
2022/01/24 00:29:39;;;;;;;;;;;;;;;26.50;26.83;98974.19;170639;28;4216;-56
2022/01/24 00:29:44;;;;;;;;;;;;;;;26.50;26.89;98971.53;171843;28;810;-54
2022/01/24 00:29:50;;;;;;;;;;;;;;;26.48;26.60;98976.94;171830;28;1237;-56
2022/01/24 00:29:55;;;;;;;;;;;;;;;26.49;26.56;98972.50;171674;28;834;-54
2022/01/24 00:30:00;;;;;;;;;;;;;;;26.47;26.77;98969.09;171542;28;1130;-54
2022/01/24 00:30:06;;;;;;;;;;;;;;;26.50;26.51;98975.03;171855;28;774;-55
2022/01/24 00:30:11;;;;;;;;;;;;;;;26.51;26.58;98970.59;171654;28;912;-55
2022/01/24 00:30:17;;;;;;;;;;;;;;;26.51;26.76;98974.09;171881;28;1008;-56
2022/01/24 00:30:22;;;;;;;;;;;;;;;26.53;26.50;98974.00;171830;28;995;-55
2022/01/24 00:30:27;;;;;;;;;;;;;;;26.54;26.48;98967.75;171720;28;1118;-54
2022/01/24 00:30:33;;;;;;;;;;;;;;;26.54;26.62;98970.41;171791;28;818;-55
2022/01/24 00:30:38;;;;;;;;;;;;;;;26.55;26.44;98972.97;171107;28;890;-55
2022/01/24 00:30:43;;;;;;;;;;;;;;;26.55;26.41;98970.34;171102;28;1356;-55
2022/01/24 00:30:48;;;;;;;;;;;;;;;26.56;26.35;98971.19;171137;28;1178;-55
2022/01/24 00:30:54;;;;;;;;;;;;;;;26.57;26.68;98972.88;172507;28;897;-55
2022/01/24 00:30:59;;;;;;;;;;;;;;;26.56;26.61;98969.38;172382;28;1142;-56
2022/01/24 00:31:04;;;;;;;;;;;;;;;26.56;26.42;98979.97;172352;28;1286;-54
2022/01/24 00:31:09;;;;;;;;;;;;;;;26.56;26.73;98973.81;171730;28;1141;-55
2022/01/24 00:31:14;;;;;;;;;;;;;;;26.56;26.73;98971.19;171941;28;930;-55
2022/01/24 00:31:20;;;;;;;;;;;;;;;26.56;26.70;98972.03;171248;28;724;-58
2022/01/24 00:31:25;;;;;;;;;;;;;;;26.56;26.50;98971.19;171828;28;992;-55
2022/01/24 00:31:30;;;;;;;;;;;;;;;26.55;26.58;98975.63;171279;28;901;-54
2022/01/24 00:31:35;;;;;;;;;;;;;;;26.55;26.52;98965.03;171720;28;1135;-56
2022/01/24 00:31:41;;;;;;;;;;;;;;;26.56;26.63;98977.31;171785;28;885;-54
2022/01/24 00:31:46;;;;;;;;;;;;;;;26.55;26.42;98969.47;171890;28;1217;-55
2022/01/24 00:31:51;;;;;;;;;;;;;;;26.57;26.63;98972.88;171916;28;885;-56
2022/01/24 00:31:56;;;;;;;;;;;;;;;26.58;26.67;98971.94;171686;28;1244;-56
2022/01/24 00:32:02;;;;;;;;;;;;;;;26.58;26.31;98972.78;171618;28;1121;-55
2022/01/24 00:32:07;;;;;;;;;;;;;;;26.58;26.37;98972.78;171847;28;1107;-55
2022/01/24 00:32:12;;;;;;;;;;;;;;;26.58;26.32;98966.63;171765;28;798;-55
2022/01/24 00:32:17;;;;;;;;;;;;;;;26.58;26.48;98967.50;171876;28;787;-55
2022/01/24 00:32:23;;;;;;;;;;;;;;;26.59;26.49;98968.34;171885;28;1194;-55
2022/01/24 00:32:28;;;;;;;;;;;;;;;26.59;26.61;98963.91;172458;28;1145;-55
2022/01/24 00:32:34;;;;;;;;;;;;;;;26.58;26.62;98964.00;171784;28;1165;-55
2022/01/24 00:32:39;;;;;;;;;;;;;;;26.58;26.63;98971.94;171901;28;925;-55
2022/01/24 00:32:44;;;;;;;;;;;;;;;26.57;26.62;98971.09;171782;28;1138;-55
2022/01/24 00:32:49;;;;;;;;;;;;;;;26.58;26.58;98967.50;172566;28;925;-56
2022/01/24 00:32:54;;;;;;;;;;;;;;;26.58;26.64;98959.53;172362;28;1129;-55
2022/01/24 00:33:00;;;;;;;;;;;;;;;26.60;26.31;98972.69;172333;28;1022;-55
2022/01/24 00:33:05;;;;;;;;;;;;;;;26.57;26.66;98971.09;172382;28;916;-56
2022/01/24 00:33:10;;;;;;;;;;;;;;;26.59;26.36;98968.34;171712;28;1181;-54
2022/01/24 00:33:15;;;;;;;;;;;;;;;26.59;26.42;98968.34;171838;28;1086;-55
2022/01/24 00:33:21;;;;;;;;;;;;;;;26.60;26.36;98967.38;171753;28;1071;-55
2022/01/24 00:33:26;;;;;;;;;;;;;;;26.57;26.66;98965.78;171720;28;834;-55
2022/01/24 00:33:31;;;;;;;;;;;;;;;26.58;26.62;98964.00;171721;28;1110;-54
2022/01/24 00:33:36;;;;;;;;;;;;;;;26.57;26.66;98965.78;171946;28;909;-55
2022/01/24 00:33:41;;;;;;;;;;;;;;;26.59;26.25;98965.69;172211;28;4672;-55
2022/01/24 00:33:47;;;;;;;;;;;;;;;26.55;26.46;98964.19;173196;28;937;-55
2022/01/24 00:33:52;;;;;;;;;;;;;;;26.55;26.73;98967.69;173170;28;928;-56
2022/01/24 00:33:57;;;;;;;;;;;;;;;26.55;26.68;98964.19;173066;28;1109;-56
2022/01/24 00:34:02;;;;;;;;;;;;;;;26.54;26.58;98967.75;172907;28;1152;-54
2022/01/24 00:34:07;;;;;;;;;;;;;;;26.57;26.42;98964.94;173085;28;1258;-55
2022/01/24 00:34:13;;;;;;;;;;;;;;;26.56;26.36;98971.19;173212;28;852;-55
2022/01/24 00:34:18;;;;;;;;;;;;;;;26.57;26.75;98963.16;172517;28;1811;-55
2022/01/24 00:34:23;;;;;;;;;;;;;;;26.59;26.31;98968.34;173003;28;801;-55
2022/01/24 00:34:29;;;;;;;;;;;;;;;26.56;26.36;98969.38;173012;28;955;-55
2022/01/24 00:34:34;;;;;;;;;;;;;;;26.49;26.60;98973.34;173150;28;1297;-55
2022/01/24 00:34:39;;;;;;;;;;;;;;;26.52;26.37;98967.84;173016;28;1446;-56
2022/01/24 00:34:44;;;;;;;;;;;;;;;26.48;26.86;98965.50;172266;28;1792;-56
2022/01/24 00:34:50;;;;;;;;;;;;;;;26.49;26.82;98967.19;171828;28;890;-55
2022/01/24 00:34:55;;;;;;;;;;;;;;;26.51;26.79;98974.09;170964;28;1115;-55
2022/01/24 00:35:00;;;;;;;;;;;;;;;26.39;26.88;98964.25;171033;28;1106;-55
2022/01/24 00:35:08;;;;;;;;;;;;;;;26.44;26.61;98968.31;170963;28;1342;-55
2022/01/24 00:35:14;;;;;;;;;;;;;;;26.51;26.83;98960.00;171126;28;1301;-54
2022/01/24 00:35:19;;;;;;;;;;;;;;;26.51;26.78;98968.78;171155;28;956;-55
2022/01/24 00:35:25;;;;;;;;;;;;;;;26.53;26.81;98968.69;171159;28;941;-55
2022/01/24 00:35:30;;;;;;;;;;;;;;;26.51;26.63;98966.16;171111;28;897;-55
2022/01/24 00:35:35;;;;;;;;;;;;;;;26.53;26.74;98974.84;171133;28;962;-55
2022/01/24 00:35:40;;;;;;;;;;;;;;;26.51;26.59;98965.31;171048;28;1044;-55
2022/01/24 00:35:46;;;;;;;;;;;;;;;26.52;26.43;98967.00;171206;28;909;-55
2022/01/24 00:35:51;;;;;;;;;;;;;;;26.54;26.45;98967.75;171207;28;1095;-55
2022/01/24 00:35:56;;;;;;;;;;;;;;;26.54;26.45;98965.09;171059;28;791;-55
2022/01/24 00:36:02;;;;;;;;;;;;;;;26.53;26.44;98968.69;170955;28;1224;-56
2022/01/24 00:36:07;;;;;;;;;;;;;;;26.55;26.62;98969.47;171027;28;1142;-55
2022/01/24 00:36:12;;;;;;;;;;;;;;;26.50;26.56;98968.91;171104;28;821;-55
2022/01/24 00:36:17;;;;;;;;;;;;;;;26.43;26.98;98965.75;171098;28;1063;-56
2022/01/24 00:36:23;;;;;;;;;;;;;;;26.47;26.90;98969.09;171212;28;909;-55
2022/01/24 00:36:28;;;;;;;;;;;;;;;26.51;26.81;98966.16;171026;28;1007;-55
2022/01/24 00:36:33;;;;;;;;;;;;;;;26.53;26.31;98974.84;171581;28;881;-55
2022/01/24 00:36:39;;;;;;;;;;;;;;;26.53;26.70;98968.69;171742;28;1106;-55
2022/01/24 00:36:48;;;;;;;;;;;;;;;26.54;26.45;98965.09;172366;28;866;-55
2022/01/24 00:36:53;;;;;;;;;;;;;;;26.55;26.29;98962.41;172648;28;1161;-55
2022/01/24 00:36:59;;;;;;;;;;;;;;;26.54;26.52;98970.41;172279;28;1312;-55
2022/01/24 00:37:04;;;;;;;;;;;;;;;26.52;26.46;98965.19;172337;28;915;-56
2022/01/24 00:37:10;;;;;;;;;;;;;;;26.54;26.74;98965.09;172342;28;860;-55
2022/01/24 00:37:15;;;;;;;;;;;;;;;26.54;26.72;98963.31;171957;28;1230;-56
2022/01/24 00:37:21;;;;;;;;;;;;;;;26.52;26.66;98967.00;171654;28;876;-56
2022/01/24 00:37:30;;;;;;;;;;;;;;;26.48;26.84;98970.78;172295;28;1018;-56
2022/01/24 00:37:35;;;;;;;;;;;;;;;26.46;26.60;98968.22;171766;28;4285;-55
2022/01/24 00:37:40;;;;;;;;;;;;;;;26.47;26.58;98969.09;172361;28;1062;-55
2022/01/24 00:37:46;;;;;;;;;;;;;;;26.41;26.56;98965.00;172527;28;845;-54
2022/01/24 00:37:51;;;;;;;;;;;;;;;26.46;26.52;98965.56;172413;28;1275;-54
2022/01/24 00:38:01;;;;;;;;;;;;;;;26.44;26.75;98967.47;172286;28;833;-56
2022/01/24 00:38:06;;;;;;;;;;;;;;;26.30;26.99;98960.31;171758;28;625;-55
2022/01/24 00:38:12;;;;;;;;;;;;;;;26.35;26.76;98966.19;172458;28;905;-55
2022/01/24 00:38:17;;;;;;;;;;;;;;;26.40;26.66;98964.16;172109;28;630;-56
2022/01/24 00:38:22;;;;;;;;;;;;;;;26.47;26.79;98963.81;172570;28;790;-55
2022/01/24 00:38:28;;;;;;;;;;;;;;;26.48;26.53;98971.63;171668;28;1035;-55
2022/01/24 00:38:33;;;;;;;;;;;;;;;26.51;26.49;98965.31;171700;28;818;-55
2022/01/24 00:38:38;;;;;;;;;;;;;;;26.52;26.63;98967.00;171278;28;1106;-55
2022/01/24 00:38:44;;;;;;;;;;;;;;;26.52;26.71;98967.00;171142;28;787;-55
2022/01/24 00:38:49;;;;;;;;;;;;;;;26.54;26.68;98970.41;171343;28;1102;-56
2022/01/24 00:38:54;;;;;;;;;;;;;;;26.55;26.59;98969.47;171749;28;814;-55
2022/01/24 00:39:00;;;;;;;;;;;;;;;26.54;26.43;98971.25;172159;28;986;-56
2022/01/24 00:39:05;;;;;;;;;;;;;;;26.53;26.43;98963.41;172452;28;770;-55
2022/01/24 00:39:10;;;;;;;;;;;;;;;26.52;26.75;98965.19;171795;28;834;-56
2022/01/24 00:39:16;;;;;;;;;;;;;;;26.55;26.75;98967.69;170984;28;1378;-55
2022/01/24 00:39:21;;;;;;;;;;;;;;;26.55;26.38;98961.53;171114;28;814;-55
2022/01/24 00:39:26;;;;;;;;;;;;;;;26.54;26.58;98965.94;171046;28;1173;-55
2022/01/24 00:39:31;;;;;;;;;;;;;;;26.46;26.65;98962.06;172419;28;1971;-55
2022/01/24 00:39:38;;;;;;;;;;;;;;;26.44;26.74;98960.38;172467;28;1145;-55
2022/01/24 00:39:44;;;;;;;;;;;;;;;26.50;26.62;98963.59;172587;28;838;-55
2022/01/24 00:39:49;;;;;;;;;;;;;;;26.51;26.82;98968.78;172485;28;1217;-55
2022/01/24 00:39:54;;;;;;;;;;;;;;;26.51;26.47;98965.31;172420;28;798;-55
2022/01/24 00:40:00;;;;;;;;;;;;;;;26.45;26.57;98963.88;172277;28;1141;-55
2022/01/24 00:40:05;;;;;;;;;;;;;;;26.44;26.86;98963.03;171802;28;853;-55
2022/01/24 00:40:11;;;;;;;;;;;;;;;26.40;26.79;98966.81;171781;28;1091;-55
2022/01/24 00:40:16;;;;;;;;;;;;;;;26.37;26.95;98968.72;171918;28;853;-55
2022/01/24 00:40:21;;;;;;;;;;;;;;;26.44;26.65;98973.59;171743;28;878;-55
2022/01/24 00:40:27;;;;;;;;;;;;;;;26.47;26.85;98961.16;171776;28;1003;-55
2022/01/24 00:40:36;;;;;;;;;;;;;;;26.50;26.56;98966.25;171936;28;830;-55
2022/01/24 00:40:45;;;;;;;;;;;;;;;26.54;26.62;98967.75;171841;28;902;-55
2022/01/24 00:40:50;;;;;;;;;;;;;;;26.50;26.56;98966.25;171780;28;1572;-55
2022/01/24 00:40:55;;;;;;;;;;;;;;;26.50;26.77;98966.25;171696;28;868;-56
2022/01/24 00:41:01;;;;;;;;;;;;;;;26.49;26.77;98972.50;172831;28;1173;-55
2022/01/24 00:41:12;;;;;;;;;;;;;;;26.51;26.75;98967.94;172458;28;872;-55
2022/01/24 00:41:19;;;;;;;;;;;;;;;26.53;26.64;98964.25;171809;28;917;-54
2022/01/24 00:41:24;;;;;;;;;;;;;;;26.48;26.53;98968.16;171671;28;900;-55
2022/01/24 00:41:34;;;;;;;;;;;;;;;26.49;26.59;98962.75;171793;28;885;-54
2022/01/24 00:41:49;;;;;;;;;;;;;;;26.55;26.70;98965.03;171280;28;4420;-55
2022/01/24 00:42:57;;;;;;;;;;;;;;;26.54;26.51;98958.00;172424;28;679;-55
2022/01/24 00:43:01;;;;;;;;;;;;;;;26.56;26.43;98964.09;171883;28;713;-56
2022/01/24 00:43:05;;;;;;;;;;;;;;;26.50;26.70;98959.16;170840;28;1099;-55
2022/01/24 00:43:44;;;;;;;;;;;;;;;26.52;26.60;98959.06;171285;28;1121;-56
2022/01/24 00:44:48;;;;;;;;;;;;;;;26.47;26.47;98961.16;172739;28;1551;-55
2022/01/24 00:45:09;;;;;;;;;;;;;;;26.46;26.53;98962.91;173133;28;1076;-54
2022/01/24 00:45:32;;;;;;;;;;;;;;;26.44;26.52;98963.03;173621;28;876;-53
2022/01/24 00:45:59;;;;;;;;;;;;;;;26.44;26.53;98959.53;172127;28;4201;-57
2022/01/24 00:46:15;;;;;;;;;;;;;;;26.23;27.05;98958.13;172005;28;1038;-55
2022/01/24 00:46:33;;;;;;;;;;;;;;;26.28;26.76;98959.56;171949;28;842;-55
2022/01/24 00:46:46;;;;;;;;;;;;;;;26.35;26.67;98957.41;172520;28;855;-55
2022/01/24 00:46:57;;;;;;;;;;;;;;;26.36;26.92;98959.94;172538;28;1030;-55
2022/01/24 00:47:08;;;;;;;;;;;;;;;26.40;26.66;98958.88;172101;28;982;-56
2022/01/24 00:47:28;;;;;;;;;;;;;;;26.42;26.63;98956.13;172529;28;1094;-55
2022/01/24 00:48:23;;;;;;;;;;;;;;;26.44;26.57;98960.38;172343;28;1013;-55
2022/01/24 00:53:39;;;;;;;;;;;;;;;26.24;27.01;98957.22;172716;28;864;-55
2022/01/24 00:54:01;;;;;;;;;;;;;;;26.27;26.86;98962.31;171829;28;1546;-55
2022/01/24 00:54:44;;;;;;;;;;;;;;;26.21;26.85;98952.06;172441;28;1082;-55
2022/01/24 00:54:52;;;;;;;;;;;;;;;26.13;27.21;98957.81;172498;28;905;-55
2022/01/24 00:54:58;;;;;;;;;;;;;;;26.19;27.17;98953.97;172377;28;1249;-56
2022/01/24 00:55:04;;;;;;;;;;;;;;;26.21;27.04;98957.38;172160;28;1168;-54
2022/01/24 00:55:09;;;;;;;;;;;;;;;26.14;26.97;98956.88;172366;28;1109;-55
2022/01/24 00:55:14;;;;;;;;;;;;;;;26.19;26.94;98957.47;172615;28;846;-54
2022/01/24 00:55:19;;;;;;;;;;;;;;;26.22;26.84;98954.63;171644;28;1000;-55
2022/01/24 00:55:25;;;;;;;;;;;;;;;26.26;27.10;98957.97;171761;28;849;-55
2022/01/24 00:55:30;;;;;;;;;;;;;;;26.27;26.84;98957.00;172423;28;955;-55
2022/01/24 00:55:35;;;;;;;;;;;;;;;26.29;26.78;98952.47;172493;28;873;-55
2022/01/24 00:55:41;;;;;;;;;;;;;;;26.30;26.83;98951.53;172368;28;1118;-56
2022/01/24 00:55:47;;;;;;;;;;;;;;;26.29;26.96;98945.38;171865;28;1331;-56
2022/01/24 00:55:53;;;;;;;;;;;;;;;26.33;27.06;98960.16;171680;28;1174;-55
2022/01/24 00:55:58;;;;;;;;;;;;;;;26.23;26.81;98951.06;171737;28;902;-56
2022/01/24 00:56:03;;;;;;;;;;;;;;;26.28;27.09;98950.78;171488;28;1136;-55